LFST/SXB METAR and TAF weather

Enter ICAO airport designator
Station Type Date Time Source
LFST METAR 2021/06/22 22:30 UTC NOAA

LFST 222230Z AUTO VRB02KT CAVOK 17/15 Q1016 NOSIG


Station Type Date Time Source
LFST Decoded METAR 2021/06/22 22:30 UTC NOAA

Strasbourg, France (LFST) 48-33N 007-38E 154M
Jun 22, 2021 - 06:30 PM EDT / 2021.06.22 2230 UTC
Wind: Variable at 2 MPH (2 KT):0
Visibility: greater than 7 mile(s):0
Temperature: 62 F (17 C)
Dew Point: 59 F (15 C)
Relative Humidity: 88%
Pressure (altimeter): 30.00 in. Hg (1016 hPa)
ob: LFST 222230Z AUTO VRB02KT CAVOK 17/15 Q1016 NOSIG
cycle: 22

Station Type Date Time Source
LFST TAF 2021/06/22 18:21 UTC NOAA

TAF LFST 221700Z 2218/2318 36005KT 9999 FEW016 SCT030 BKN080 PROB40
TEMPO 2218/2221 -SHRA FEW030CB PROB40
TEMPO 2302/2307 BKN008 PROB40
TEMPO 2310/2318 -SHRA FEW040TCU PROB30
TEMPO 2312/2318 VRB15G25KT 3000 TSRA SCT040CB

Example: see airport list